sensor_id;sensor_type;location;lat;lon;timestamp;P1;durP1;ratioP1;P2;durP2;ratioP2
32637;SDS011;19045;52.268;10.506;2023-04-01T00:01:39;9.68;;;2.45;;
32637;SDS011;19045;52.268;10.506;2023-04-01T00:04:05;6.57;;;2.30;;
32637;SDS011;19045;52.268;10.506;2023-04-01T00:06:32;8.93;;;2.40;;
32637;SDS011;19045;52.268;10.506;2023-04-01T00:08:58;12.48;;;2.47;;
32637;SDS011;19045;52.268;10.506;2023-04-01T00:11:26;7.80;;;2.45;;
32637;SDS011;19045;52.268;10.506;2023-04-01T00:13:54;6.68;;;1.90;;
32637;SDS011;19045;52.268;10.506;2023-04-01T00:16:21;5.53;;;2.20;;
32637;SDS011;19045;52.268;10.506;2023-04-01T00:18:47;9.00;;;2.47;;
32637;SDS011;19045;52.268;10.506;2023-04-01T00:21:14;10.93;;;2.58;;
32637;SDS011;19045;52.268;10.506;2023-04-01T00:23:41;11.35;;;2.55;;
32637;SDS011;19045;52.268;10.506;2023-04-01T00:26:08;6.47;;;2.15;;
32637;SDS011;19045;52.268;10.506;2023-04-01T00:28:38;8.90;;;2.53;;
32637;SDS011;19045;52.268;10.506;2023-04-01T00:31:05;9.68;;;2.80;;
32637;SDS011;19045;52.268;10.506;2023-04-01T00:33:32;7.43;;;2.10;;
32637;SDS011;19045;52.268;10.506;2023-04-01T00:36:05;10.48;;;2.38;;
32637;SDS011;19045;52.268;10.506;2023-04-01T00:38:33;9.27;;;2.78;;
32637;SDS011;19045;52.268;10.506;2023-04-01T00:41:00;11.05;;;2.55;;
32637;SDS011;19045;52.268;10.506;2023-04-01T00:43:26;11.23;;;2.53;;
32637;SDS011;19045;52.268;10.506;2023-04-01T00:45:54;8.27;;;2.80;;
32637;SDS011;19045;52.268;10.506;2023-04-01T00:48:22;10.65;;;3.45;;
32637;SDS011;19045;52.268;10.506;2023-04-01T00:50:56;8.80;;;3.88;;
32637;SDS011;19045;52.268;10.506;2023-04-01T00:53:25;8.18;;;3.67;;
32637;SDS011;19045;52.268;10.506;2023-04-01T00:55:56;8.45;;;2.72;;
32637;SDS011;19045;52.268;10.506;2023-04-01T00:58:31;7.03;;;2.80;;
32637;SDS011;19045;52.268;10.506;2023-04-01T01:01:05;11.75;;;2.78;;
32637;SDS011;19045;52.268;10.506;2023-04-01T01:03:34;11.73;;;3.00;;
32637;SDS011;19045;52.268;10.506;2023-04-01T01:06:08;7.47;;;2.20;;
32637;SDS011;19045;52.268;10.506;2023-04-01T01:08:46;9.77;;;2.75;;
32637;SDS011;19045;52.268;10.506;2023-04-01T01:11:27;9.20;;;1.98;;
32637;SDS011;19045;52.268;10.506;2023-04-01T01:14:01;7.95;;;1.60;;
32637;SDS011;19045;52.268;10.506;2023-04-01T01:16:39;4.60;;;1.30;;
32637;SDS011;19045;52.268;10.506;2023-04-01T01:19:14;8.40;;;1.35;;
32637;SDS011;19045;52.268;10.506;2023-04-01T01:22:12;2.97;;;1.60;;
32637;SDS011;19045;52.268;10.506;2023-04-01T01:24:52;3.60;;;1.10;;
32637;SDS011;19045;52.268;10.506;2023-04-01T01:27:30;8.07;;;1.90;;
32637;SDS011;19045;52.268;10.506;2023-04-01T01:30:11;7.82;;;1.80;;
32637;SDS011;19045;52.268;10.506;2023-04-01T01:33:01;7.05;;;1.30;;
32637;SDS011;19045;52.268;10.506;2023-04-01T01:35:47;7.63;;;1.45;;
32637;SDS011;19045;52.268;10.506;2023-04-01T01:38:18;6.57;;;1.38;;
32637;SDS011;19045;52.268;10.506;2023-04-01T01:40:48;4.40;;;1.17;;
32637;SDS011;19045;52.268;10.506;2023-04-01T01:43:19;4.13;;;1.20;;
32637;SDS011;19045;52.268;10.506;2023-04-01T01:45:50;4.47;;;1.00;;
32637;SDS011;19045;52.268;10.506;2023-04-01T01:48:19;4.05;;;1.45;;
32637;SDS011;19045;52.268;10.506;2023-04-01T01:50:48;5.65;;;1.27;;
32637;SDS011;19045;52.268;10.506;2023-04-01T01:53:15;3.03;;;1.45;;
32637;SDS011;19045;52.268;10.506;2023-04-01T01:55:43;5.53;;;1.30;;
32637;SDS011;19045;52.268;10.506;2023-04-01T01:58:13;6.40;;;1.58;;
32637;SDS011;19045;52.268;10.506;2023-04-01T02:00:42;7.25;;;1.90;;
32637;SDS011;19045;52.268;10.506;2023-04-01T02:03:13;4.25;;;1.75;;
32637;SDS011;19045;52.268;10.506;2023-04-01T02:05:41;2.72;;;1.55;;
32637;SDS011;19045;52.268;10.506;2023-04-01T02:08:10;4.03;;;1.90;;
32637;SDS011;19045;52.268;10.506;2023-04-01T02:10:41;6.20;;;1.83;;
32637;SDS011;19045;52.268;10.506;2023-04-01T02:13:15;7.32;;;2.10;;
32637;SDS011;19045;52.268;10.506;2023-04-01T02:15:46;7.57;;;2.42;;
32637;SDS011;19045;52.268;10.506;2023-04-01T02:18:17;5.55;;;2.30;;
32637;SDS011;19045;52.268;10.506;2023-04-01T02:21:06;5.82;;;2.10;;
32637;SDS011;19045;52.268;10.506;2023-04-01T02:23:35;9.80;;;3.00;;
32637;SDS011;19045;52.268;10.506;2023-04-01T02:26:04;7.03;;;2.55;;
32637;SDS011;19045;52.268;10.506;2023-04-01T02:28:32;5.97;;;2.60;;
32637;SDS011;19045;52.268;10.506;2023-04-01T02:31:00;8.75;;;2.70;;
32637;SDS011;19045;52.268;10.506;2023-04-01T02:33:28;8.13;;;2.38;;
32637;SDS011;19045;52.268;10.506;2023-04-01T02:35:56;7.63;;;3.33;;
32637;SDS011;19045;52.268;10.506;2023-04-01T02:38:24;14.15;;;3.65;;
32637;SDS011;19045;52.268;10.506;2023-04-01T02:40:56;6.88;;;2.80;;
32637;SDS011;19045;52.268;10.506;2023-04-01T02:43:25;11.07;;;3.22;;
32637;SDS011;19045;52.268;10.506;2023-04-01T02:45:51;8.80;;;2.80;;
32637;SDS011;19045;52.268;10.506;2023-04-01T02:48:18;4.88;;;2.80;;
32637;SDS011;19045;52.268;10.506;2023-04-01T02:50:45;6.70;;;2.78;;
32637;SDS011;19045;52.268;10.506;2023-04-01T02:53:11;11.30;;;3.95;;
32637;SDS011;19045;52.268;10.506;2023-04-01T02:55:38;11.73;;;3.50;;
32637;SDS011;19045;52.268;10.506;2023-04-01T02:58:06;11.55;;;4.30;;
32637;SDS011;19045;52.268;10.506;2023-04-01T03:00:33;10.43;;;4.30;;
32637;SDS011;19045;52.268;10.506;2023-04-01T03:02:59;15.63;;;4.85;;
32637;SDS011;19045;52.268;10.506;2023-04-01T03:05:27;14.65;;;4.88;;
32637;SDS011;19045;52.268;10.506;2023-04-01T03:07:54;9.20;;;4.05;;
32637;SDS011;19045;52.268;10.506;2023-04-01T03:10:20;10.20;;;4.20;;
32637;SDS011;19045;52.268;10.506;2023-04-01T03:12:47;10.35;;;4.20;;
32637;SDS011;19045;52.268;10.506;2023-04-01T03:15:15;8.10;;;3.03;;
32637;SDS011;19045;52.268;10.506;2023-04-01T03:17:42;6.18;;;2.85;;
32637;SDS011;19045;52.268;10.506;2023-04-01T03:20:09;5.90;;;2.63;;
32637;SDS011;19045;52.268;10.506;2023-04-01T03:22:37;5.65;;;2.35;;
32637;SDS011;19045;52.268;10.506;2023-04-01T03:25:04;6.95;;;2.30;;
32637;SDS011;19045;52.268;10.506;2023-04-01T03:27:32;4.57;;;2.15;;
32637;SDS011;19045;52.268;10.506;2023-04-01T03:29:59;5.88;;;1.63;;
32637;SDS011;19045;52.268;10.506;2023-04-01T03:32:27;4.53;;;1.80;;
32637;SDS011;19045;52.268;10.506;2023-04-01T03:34:53;7.13;;;2.13;;
32637;SDS011;19045;52.268;10.506;2023-04-01T03:37:20;7.00;;;2.20;;
32637;SDS011;19045;52.268;10.506;2023-04-01T03:39:47;6.47;;;2.22;;
32637;SDS011;19045;52.268;10.506;2023-04-01T03:42:13;4.05;;;1.83;;
32637;SDS011;19045;52.268;10.506;2023-04-01T03:44:43;9.75;;;2.22;;
32637;SDS011;19045;52.268;10.506;2023-04-01T03:47:11;8.10;;;2.03;;
32637;SDS011;19045;52.268;10.506;2023-04-01T03:49:42;6.18;;;2.28;;
32637;SDS011;19045;52.268;10.506;2023-04-01T03:52:09;5.07;;;1.90;;
32637;SDS011;19045;52.268;10.506;2023-04-01T03:54:36;8.57;;;1.98;;
32637;SDS011;19045;52.268;10.506;2023-04-01T03:57:03;3.72;;;1.20;;
32637;SDS011;19045;52.268;10.506;2023-04-01T03:59:30;7.63;;;1.63;;
32637;SDS011;19045;52.268;10.506;2023-04-01T04:01:58;4.47;;;1.52;;
32637;SDS011;19045;52.268;10.506;2023-04-01T04:04:25;6.85;;;1.73;;
32637;SDS011;19045;52.268;10.506;2023-04-01T04:06:56;6.07;;;1.88;;
32637;SDS011;19045;52.268;10.506;2023-04-01T04:09:23;6.28;;;1.35;;
32637;SDS011;19045;52.268;10.506;2023-04-01T04:11:53;6.45;;;1.52;;
32637;SDS011;19045;52.268;10.506;2023-04-01T04:14:20;5.88;;;1.60;;
32637;SDS011;19045;52.268;10.506;2023-04-01T04:16:46;4.00;;;1.48;;
32637;SDS011;19045;52.268;10.506;2023-04-01T04:19:13;3.97;;;1.38;;
32637;SDS011;19045;52.268;10.506;2023-04-01T04:21:40;4.38;;;1.52;;
32637;SDS011;19045;52.268;10.506;2023-04-01T04:24:08;4.80;;;1.40;;
32637;SDS011;19045;52.268;10.506;2023-04-01T04:26:35;4.53;;;1.67;;
32637;SDS011;19045;52.268;10.506;2023-04-01T04:29:02;4.57;;;1.27;;
32637;SDS011;19045;52.268;10.506;2023-04-01T04:31:29;4.88;;;1.50;;
32637;SDS011;19045;52.268;10.506;2023-04-01T04:33:55;5.10;;;1.58;;
32637;SDS011;19045;52.268;10.506;2023-04-01T04:36:22;3.70;;;1.17;;
32637;SDS011;19045;52.268;10.506;2023-04-01T04:38:48;7.22;;;1.30;;
32637;SDS011;19045;52.268;10.506;2023-04-01T04:41:17;5.38;;;1.45;;
32637;SDS011;19045;52.268;10.506;2023-04-01T04:43:48;3.92;;;1.65;;
32637;SDS011;19045;52.268;10.506;2023-04-01T04:46:17;6.53;;;1.77;;
32637;SDS011;19045;52.268;10.506;2023-04-01T04:48:44;6.35;;;1.83;;
32637;SDS011;19045;52.268;10.506;2023-04-01T04:51:12;7.80;;;1.92;;
32637;SDS011;19045;52.268;10.506;2023-04-01T04:53:40;7.15;;;1.77;;
32637;SDS011;19045;52.268;10.506;2023-04-01T04:56:07;5.93;;;1.33;;
32637;SDS011;19045;52.268;10.506;2023-04-01T04:58:35;4.03;;;1.35;;
32637;SDS011;19045;52.268;10.506;2023-04-01T05:01:05;3.08;;;1.23;;
32637;SDS011;19045;52.268;10.506;2023-04-01T05:03:32;5.22;;;1.60;;
32637;SDS011;19045;52.268;10.506;2023-04-01T05:05:59;4.43;;;1.48;;
32637;SDS011;19045;52.268;10.506;2023-04-01T05:08:26;4.05;;;1.38;;
32637;SDS011;19045;52.268;10.506;2023-04-01T05:10:52;3.33;;;1.50;;
32637;SDS011;19045;52.268;10.506;2023-04-01T05:13:19;3.38;;;1.30;;
32637;SDS011;19045;52.268;10.506;2023-04-01T05:15:47;4.05;;;1.05;;
32637;SDS011;19045;52.268;10.506;2023-04-01T05:18:14;6.13;;;1.00;;
32637;SDS011;19045;52.268;10.506;2023-04-01T05:20:45;3.75;;;1.00;;
32637;SDS011;19045;52.268;10.506;2023-04-01T05:23:12;5.10;;;1.50;;
32637;SDS011;19045;52.268;10.506;2023-04-01T05:25:38;2.90;;;1.00;;
32637;SDS011;19045;52.268;10.506;2023-04-01T05:28:05;4.32;;;1.60;;
32637;SDS011;19045;52.268;10.506;2023-04-01T05:30:32;2.92;;;1.20;;
32637;SDS011;19045;52.268;10.506;2023-04-01T05:33:00;2.75;;;1.10;;
32637;SDS011;19045;52.268;10.506;2023-04-01T05:35:26;3.78;;;1.17;;
32637;SDS011;19045;52.268;10.506;2023-04-01T05:37:55;7.93;;;1.73;;
32637;SDS011;19045;52.268;10.506;2023-04-01T05:40:22;5.00;;;1.40;;
32637;SDS011;19045;52.268;10.506;2023-04-01T05:42:48;4.13;;;1.20;;
32637;SDS011;19045;52.268;10.506;2023-04-01T05:45:15;5.78;;;1.40;;
32637;SDS011;19045;52.268;10.506;2023-04-01T05:47:42;5.18;;;1.55;;
32637;SDS011;19045;52.268;10.506;2023-04-01T05:50:10;1.58;;;1.08;;
32637;SDS011;19045;52.268;10.506;2023-04-01T05:52:36;5.50;;;1.58;;
32637;SDS011;19045;52.268;10.506;2023-04-01T05:55:05;4.53;;;1.20;;
32637;SDS011;19045;52.268;10.506;2023-04-01T05:57:32;3.20;;;1.08;;
32637;SDS011;19045;52.268;10.506;2023-04-01T05:59:59;3.53;;;1.10;;
32637;SDS011;19045;52.268;10.506;2023-04-01T06:02:25;6.20;;;1.27;;
32637;SDS011;19045;52.268;10.506;2023-04-01T06:04:53;3.92;;;1.20;;
32637;SDS011;19045;52.268;10.506;2023-04-01T06:07:29;5.82;;;1.55;;
32637;SDS011;19045;52.268;10.506;2023-04-01T06:09:56;2.70;;;1.08;;
32637;SDS011;19045;52.268;10.506;2023-04-01T06:12:37;5.53;;;1.50;;
32637;SDS011;19045;52.268;10.506;2023-04-01T06:15:23;2.53;;;0.90;;
32637;SDS011;19045;52.268;10.506;2023-04-01T06:18:03;3.40;;;1.38;;
32637;SDS011;19045;52.268;10.506;2023-04-01T06:20:48;2.10;;;0.90;;
32637;SDS011;19045;52.268;10.506;2023-04-01T06:23:37;2.67;;;0.95;;
32637;SDS011;19045;52.268;10.506;2023-04-01T06:26:23;3.92;;;1.02;;
32637;SDS011;19045;52.268;10.506;2023-04-01T06:29:03;7.28;;;2.17;;
32637;SDS011;19045;52.268;10.506;2023-04-01T06:31:57;2.40;;;0.90;;
32637;SDS011;19045;52.268;10.506;2023-04-01T06:34:44;2.67;;;1.13;;
32637;SDS011;19045;52.268;10.506;2023-04-01T06:37:34;3.22;;;1.05;;
32637;SDS011;19045;52.268;10.506;2023-04-01T06:43:40;1.83;;;1.02;;
32637;SDS011;19045;52.268;10.506;2023-04-01T06:46:18;5.45;;;1.40;;
32637;SDS011;19045;52.268;10.506;2023-04-01T06:48:54;2.80;;;1.00;;
32637;SDS011;19045;52.268;10.506;2023-04-01T06:51:32;3.33;;;1.27;;
32637;SDS011;19045;52.268;10.506;2023-04-01T06:54:09;2.70;;;1.10;;
32637;SDS011;19045;52.268;10.506;2023-04-01T06:56:41;2.85;;;0.90;;
32637;SDS011;19045;52.268;10.506;2023-04-01T06:59:12;2.15;;;0.93;;
32637;SDS011;19045;52.268;10.506;2023-04-01T13:54:13;1.27;;;1.10;;
32637;SDS011;19045;52.268;10.506;2023-04-01T13:56:56;1.23;;;1.13;;
32637;SDS011;19045;52.268;10.506;2023-04-01T14:05:47;1.27;;;0.93;;
32637;SDS011;19045;52.268;10.506;2023-04-01T14:08:23;2.35;;;1.83;;
32637;SDS011;19045;52.268;10.506;2023-04-01T14:11:05;3.03;;;1.17;;
32637;SDS011;19045;52.268;10.506;2023-04-01T14:13:41;1.70;;;1.15;;
32637;SDS011;19045;52.268;10.506;2023-04-01T14:16:33;1.77;;;1.10;;
32637;SDS011;19045;52.268;10.506;2023-04-01T14:19:20;1.98;;;0.90;;
32637;SDS011;19045;52.268;10.506;2023-04-01T14:21:58;1.13;;;1.02;;
32637;SDS011;19045;52.268;10.506;2023-04-01T14:24:43;0.98;;;0.98;;
32637;SDS011;19045;52.268;10.506;2023-04-01T14:27:24;0.93;;;0.90;;
32637;SDS011;19045;52.268;10.506;2023-04-01T14:33:21;1.50;;;1.00;;
32637;SDS011;19045;52.268;10.506;2023-04-01T14:36:01;1.58;;;1.20;;
32637;SDS011;19045;52.268;10.506;2023-04-01T14:38:51;1.05;;;0.95;;
32637;SDS011;19045;52.268;10.506;2023-04-01T14:41:29;3.03;;;0.90;;
32637;SDS011;19045;52.268;10.506;2023-04-01T14:44:18;0.88;;;0.88;;
32637;SDS011;19045;52.268;10.506;2023-04-01T14:47:11;1.27;;;1.17;;
32637;SDS011;19045;52.268;10.506;2023-04-01T14:49:54;2.70;;;1.17;;
32637;SDS011;19045;52.268;10.506;2023-04-01T14:52:32;1.58;;;0.88;;
32637;SDS011;19045;52.268;10.506;2023-04-01T14:55:01;1.70;;;1.25;;
32637;SDS011;19045;52.268;10.506;2023-04-01T14:57:57;1.48;;;1.27;;
32637;SDS011;19045;52.268;10.506;2023-04-01T15:00:27;2.40;;;1.60;;
32637;SDS011;19045;52.268;10.506;2023-04-01T15:03:14;1.38;;;1.27;;
32637;SDS011;19045;52.268;10.506;2023-04-01T15:05:47;1.63;;;1.30;;
32637;SDS011;19045;52.268;10.506;2023-04-01T15:16:49;1.83;;;1.45;;
32637;SDS011;19045;52.268;10.506;2023-04-01T15:19:30;2.95;;;1.63;;
32637;SDS011;19045;52.268;10.506;2023-04-01T15:22:08;1.73;;;1.58;;
32637;SDS011;19045;52.268;10.506;2023-04-01T15:24:56;1.95;;;1.40;;
32637;SDS011;19045;52.268;10.506;2023-04-01T15:27:33;1.30;;;1.20;;
32637;SDS011;19045;52.268;10.506;2023-04-01T15:30:27;1.50;;;1.40;;
32637;SDS011;19045;52.268;10.506;2023-04-01T15:33:14;2.15;;;1.45;;
32637;SDS011;19045;52.268;10.506;2023-04-01T15:36:01;1.58;;;1.48;;
32637;SDS011;19045;52.268;10.506;2023-04-01T15:38:39;1.65;;;1.40;;
32637;SDS011;19045;52.268;10.506;2023-04-01T15:43:40;1.55;;;1.45;;
32637;SDS011;19045;52.268;10.506;2023-04-01T15:46:14;2.55;;;1.40;;
32637;SDS011;19045;52.268;10.506;2023-04-01T15:48:54;1.60;;;1.38;;
32637;SDS011;19045;52.268;10.506;2023-04-01T15:51:31;1.60;;;1.48;;
32637;SDS011;19045;52.268;10.506;2023-04-01T15:54:26;2.10;;;1.15;;
32637;SDS011;19045;52.268;10.506;2023-04-01T16:00:02;1.40;;;1.30;;
32637;SDS011;19045;52.268;10.506;2023-04-01T16:05:15;1.50;;;1.40;;
32637;SDS011;19045;52.268;10.506;2023-04-01T16:08:17;2.17;;;1.20;;
32637;SDS011;19045;52.268;10.506;2023-04-01T16:10:57;1.70;;;1.27;;
32637;SDS011;19045;52.268;10.506;2023-04-01T16:13:32;1.70;;;1.00;;
32637;SDS011;19045;52.268;10.506;2023-04-01T16:16:10;1.83;;;1.40;;
32637;SDS011;19045;52.268;10.506;2023-04-01T16:18:52;1.80;;;1.60;;
32637;SDS011;19045;52.268;10.506;2023-04-01T16:21:43;1.42;;;1.30;;
32637;SDS011;19045;52.268;10.506;2023-04-01T16:24:16;1.75;;;1.23;;
32637;SDS011;19045;52.268;10.506;2023-04-01T16:26:50;3.95;;;1.40;;
32637;SDS011;19045;52.268;10.506;2023-04-01T16:29:24;1.55;;;1.20;;
32637;SDS011;19045;52.268;10.506;2023-04-01T16:31:59;1.67;;;0.90;;
32637;SDS011;19045;52.268;10.506;2023-04-01T16:34:34;1.58;;;1.00;;
32637;SDS011;19045;52.268;10.506;2023-04-01T16:37:07;1.40;;;1.30;;
32637;SDS011;19045;52.268;10.506;2023-04-01T16:39:41;1.55;;;1.25;;
32637;SDS011;19045;52.268;10.506;2023-04-01T16:42:16;1.05;;;0.98;;
32637;SDS011;19045;52.268;10.506;2023-04-01T16:44:50;2.08;;;1.20;;
32637;SDS011;19045;52.268;10.506;2023-04-01T16:47:22;1.50;;;1.17;;
32637;SDS011;19045;52.268;10.506;2023-04-01T16:49:56;3.13;;;1.25;;
32637;SDS011;19045;52.268;10.506;2023-04-01T16:52:32;3.22;;;1.45;;
32637;SDS011;19045;52.268;10.506;2023-04-01T16:55:12;2.65;;;1.38;;
32637;SDS011;19045;52.268;10.506;2023-04-01T16:57:45;1.45;;;1.35;;
32637;SDS011;19045;52.268;10.506;2023-04-01T17:00:17;1.75;;;1.40;;
32637;SDS011;19045;52.268;10.506;2023-04-01T17:02:52;1.67;;;1.50;;
32637;SDS011;19045;52.268;10.506;2023-04-01T17:05:40;1.30;;;1.20;;
32637;SDS011;19045;52.268;10.506;2023-04-01T17:08:19;1.73;;;1.52;;
32637;SDS011;19045;52.268;10.506;2023-04-01T17:11:00;4.35;;;1.80;;
32637;SDS011;19045;52.268;10.506;2023-04-01T17:13:35;2.25;;;1.70;;
32637;SDS011;19045;52.268;10.506;2023-04-01T17:16:17;1.60;;;1.50;;
32637;SDS011;19045;52.268;10.506;2023-04-01T17:18:56;1.45;;;1.20;;
32637;SDS011;19045;52.268;10.506;2023-04-01T17:24:35;2.70;;;1.77;;
32637;SDS011;19045;52.268;10.506;2023-04-01T17:27:23;2.58;;;1.40;;
32637;SDS011;19045;52.268;10.506;2023-04-01T17:30:17;1.52;;;1.42;;
32637;SDS011;19045;52.268;10.506;2023-04-01T17:35:51;1.50;;;1.38;;
32637;SDS011;19045;52.268;10.506;2023-04-01T17:38:29;1.80;;;1.60;;
32637;SDS011;19045;52.268;10.506;2023-04-01T17:41:12;1.30;;;1.20;;
32637;SDS011;19045;52.268;10.506;2023-04-01T17:43:47;3.38;;;1.83;;
32637;SDS011;19045;52.268;10.506;2023-04-01T17:46:27;2.35;;;1.77;;
32637;SDS011;19045;52.268;10.506;2023-04-01T17:49:08;1.80;;;1.70;;
32637;SDS011;19045;52.268;10.506;2023-04-01T17:51:48;2.50;;;2.03;;
32637;SDS011;19045;52.268;10.506;2023-04-01T17:54:21;3.22;;;1.85;;
32637;SDS011;19045;52.268;10.506;2023-04-01T17:57:01;1.70;;;1.55;;
32637;SDS011;19045;52.268;10.506;2023-04-01T17:59:51;1.73;;;1.42;;
32637;SDS011;19045;52.268;10.506;2023-04-01T18:02:28;2.60;;;1.42;;
32637;SDS011;19045;52.268;10.506;2023-04-01T18:05:12;1.67;;;1.30;;
32637;SDS011;19045;52.268;10.506;2023-04-01T18:07:59;1.42;;;1.17;;
32637;SDS011;19045;52.268;10.506;2023-04-01T18:10:35;7.32;;;1.55;;
32637;SDS011;19045;52.268;10.506;2023-04-01T18:13:14;1.40;;;1.23;;
32637;SDS011;19045;52.268;10.506;2023-04-01T18:16:14;1.10;;;1.00;;
32637;SDS011;19045;52.268;10.506;2023-04-01T18:18:53;1.30;;;1.20;;
32637;SDS011;19045;52.268;10.506;2023-04-01T18:21:31;1.50;;;1.40;;
32637;SDS011;19045;52.268;10.506;2023-04-01T18:24:11;1.60;;;1.17;;
32637;SDS011;19045;52.268;10.506;2023-04-01T18:26:44;2.53;;;1.65;;
32637;SDS011;19045;52.268;10.506;2023-04-01T18:29:20;1.58;;;1.48;;
32637;SDS011;19045;52.268;10.506;2023-04-01T18:32:00;4.22;;;1.63;;
32637;SDS011;19045;52.268;10.506;2023-04-01T18:34:41;2.03;;;1.23;;
32637;SDS011;19045;52.268;10.506;2023-04-01T18:37:19;1.52;;;1.42;;
32637;SDS011;19045;52.268;10.506;2023-04-01T18:39:52;1.48;;;1.30;;
32637;SDS011;19045;52.268;10.506;2023-04-01T18:42:27;2.85;;;1.65;;
32637;SDS011;19045;52.268;10.506;2023-04-01T18:45:04;2.33;;;1.75;;
32637;SDS011;19045;52.268;10.506;2023-04-01T18:47:41;2.00;;;1.88;;
32637;SDS011;19045;52.268;10.506;2023-04-01T18:50:13;1.77;;;1.50;;
32637;SDS011;19045;52.268;10.506;2023-04-01T18:52:49;2.40;;;1.55;;
32637;SDS011;19045;52.268;10.506;2023-04-01T18:55:30;1.88;;;1.67;;
32637;SDS011;19045;52.268;10.506;2023-04-01T18:58:17;1.92;;;1.80;;
32637;SDS011;19045;52.268;10.506;2023-04-01T19:00:52;2.22;;;1.88;;
32637;SDS011;19045;52.268;10.506;2023-04-01T19:03:41;1.80;;;1.65;;
32637;SDS011;19045;52.268;10.506;2023-04-01T19:06:17;3.50;;;1.98;;
32637;SDS011;19045;52.268;10.506;2023-04-01T19:08:54;1.70;;;1.60;;
32637;SDS011;19045;52.268;10.506;2023-04-01T19:11:27;1.83;;;1.50;;
32637;SDS011;19045;52.268;10.506;2023-04-01T19:14:04;1.92;;;1.60;;
32637;SDS011;19045;52.268;10.506;2023-04-01T19:16:46;2.40;;;1.48;;
32637;SDS011;19045;52.268;10.506;2023-04-01T19:19:26;3.65;;;2.15;;
32637;SDS011;19045;52.268;10.506;2023-04-01T19:22:01;2.25;;;1.67;;
32637;SDS011;19045;52.268;10.506;2023-04-01T19:24:49;1.98;;;1.70;;
32637;SDS011;19045;52.268;10.506;2023-04-01T19:27:29;2.67;;;1.80;;
32637;SDS011;19045;52.268;10.506;2023-04-01T19:30:07;2.17;;;1.95;;
32637;SDS011;19045;52.268;10.506;2023-04-01T19:32:47;3.00;;;2.03;;
32637;SDS011;19045;52.268;10.506;2023-04-01T19:35:27;2.17;;;1.98;;
32637;SDS011;19045;52.268;10.506;2023-04-01T19:38:03;2.25;;;2.05;;
32637;SDS011;19045;52.268;10.506;2023-04-01T19:43:34;5.40;;;2.67;;
32637;SDS011;19045;52.268;10.506;2023-04-01T19:46:14;2.78;;;2.33;;
32637;SDS011;19045;52.268;10.506;2023-04-01T19:48:53;3.40;;;2.90;;
32637;SDS011;19045;52.268;10.506;2023-04-01T19:51:34;4.32;;;3.10;;
32637;SDS011;19045;52.268;10.506;2023-04-01T19:54:11;5.80;;;3.17;;
32637;SDS011;19045;52.268;10.506;2023-04-01T19:56:45;4.28;;;3.20;;
32637;SDS011;19045;52.268;10.506;2023-04-01T19:59:18;4.50;;;3.60;;
32637;SDS011;19045;52.268;10.506;2023-04-01T20:01:49;5.90;;;3.65;;
32637;SDS011;19045;52.268;10.506;2023-04-01T20:04:26;7.88;;;3.97;;
32637;SDS011;19045;52.268;10.506;2023-04-01T20:07:03;6.25;;;4.00;;
32637;SDS011;19045;52.268;10.506;2023-04-01T20:09:42;4.82;;;3.75;;
32637;SDS011;19045;52.268;10.506;2023-04-01T20:12:18;5.22;;;3.70;;
32637;SDS011;19045;52.268;10.506;2023-04-01T20:14:53;9.18;;;3.47;;
32637;SDS011;19045;52.268;10.506;2023-04-01T20:17:23;6.38;;;3.15;;
32637;SDS011;19045;52.268;10.506;2023-04-01T20:19:59;4.43;;;3.55;;
32637;SDS011;19045;52.268;10.506;2023-04-01T20:22:38;4.45;;;3.75;;
32637;SDS011;19045;52.268;10.506;2023-04-01T20:25:32;6.07;;;2.90;;
32637;SDS011;19045;52.268;10.506;2023-04-01T20:28:09;5.03;;;3.92;;
32637;SDS011;19045;52.268;10.506;2023-04-01T20:30:46;3.83;;;3.42;;
32637;SDS011;19045;52.268;10.506;2023-04-01T20:36:49;6.38;;;3.65;;
32637;SDS011;19045;52.268;10.506;2023-04-01T20:39:34;6.28;;;3.88;;
32637;SDS011;19045;52.268;10.506;2023-04-01T20:44:55;6.85;;;4.57;;
32637;SDS011;19045;52.268;10.506;2023-04-01T20:47:41;6.68;;;4.13;;
32637;SDS011;19045;52.268;10.506;2023-04-01T20:50:21;4.72;;;3.40;;
32637;SDS011;19045;52.268;10.506;2023-04-01T20:53:01;6.00;;;4.00;;
32637;SDS011;19045;52.268;10.506;2023-04-01T20:58:35;5.40;;;4.03;;
32637;SDS011;19045;52.268;10.506;2023-04-01T21:01:19;6.15;;;3.97;;
32637;SDS011;19045;52.268;10.506;2023-04-01T21:04:10;5.53;;;3.83;;
32637;SDS011;19045;52.268;10.506;2023-04-01T21:07:01;7.95;;;4.28;;
32637;SDS011;19045;52.268;10.506;2023-04-01T21:12:23;8.25;;;4.60;;
32637;SDS011;19045;52.268;10.506;2023-04-01T21:15:16;6.57;;;4.35;;
32637;SDS011;19045;52.268;10.506;2023-04-01T21:17:57;7.55;;;4.68;;
32637;SDS011;19045;52.268;10.506;2023-04-01T21:20:43;7.35;;;4.57;;
32637;SDS011;19045;52.268;10.506;2023-04-01T21:23:31;8.07;;;4.50;;
32637;SDS011;19045;52.268;10.506;2023-04-01T21:26:21;10.52;;;4.40;;
32637;SDS011;19045;52.268;10.506;2023-04-01T21:28:59;10.10;;;4.38;;
32637;SDS011;19045;52.268;10.506;2023-04-01T21:32:07;6.30;;;3.90;;
32637;SDS011;19045;52.268;10.506;2023-04-01T21:34:55;6.75;;;5.15;;
32637;SDS011;19045;52.268;10.506;2023-04-01T21:43:31;9.68;;;5.38;;
32637;SDS011;19045;52.268;10.506;2023-04-01T21:46:24;7.32;;;4.63;;
32637;SDS011;19045;52.268;10.506;2023-04-01T21:49:11;9.52;;;5.07;;
32637;SDS011;19045;52.268;10.506;2023-04-01T21:52:20;8.75;;;5.32;;
32637;SDS011;19045;52.268;10.506;2023-04-01T21:58:41;8.45;;;5.28;;
32637;SDS011;19045;52.268;10.506;2023-04-01T22:01:35;8.27;;;5.25;;
32637;SDS011;19045;52.268;10.506;2023-04-01T22:04:24;7.00;;;5.47;;
32637;SDS011;19045;52.268;10.506;2023-04-01T22:07:11;10.40;;;6.03;;
32637;SDS011;19045;52.268;10.506;2023-04-01T22:09:47;11.23;;;5.43;;
32637;SDS011;19045;52.268;10.506;2023-04-01T22:12:27;11.00;;;5.20;;
32637;SDS011;19045;52.268;10.506;2023-04-01T22:15:05;10.40;;;5.13;;
32637;SDS011;19045;52.268;10.506;2023-04-01T22:17:43;9.95;;;4.95;;
32637;SDS011;19045;52.268;10.506;2023-04-01T22:20:19;10.32;;;5.32;;
32637;SDS011;19045;52.268;10.506;2023-04-01T22:22:56;15.15;;;5.38;;
32637;SDS011;19045;52.268;10.506;2023-04-01T22:25:38;9.00;;;5.07;;
32637;SDS011;19045;52.268;10.506;2023-04-01T22:28:09;10.07;;;4.85;;
32637;SDS011;19045;52.268;10.506;2023-04-01T22:30:41;10.07;;;5.45;;
32637;SDS011;19045;52.268;10.506;2023-04-01T22:33:14;8.27;;;5.40;;
32637;SDS011;19045;52.268;10.506;2023-04-01T22:35:47;7.95;;;5.50;;
32637;SDS011;19045;52.268;10.506;2023-04-01T22:38:26;10.55;;;5.72;;
32637;SDS011;19045;52.268;10.506;2023-04-01T22:41:08;7.63;;;4.75;;
32637;SDS011;19045;52.268;10.506;2023-04-01T22:43:45;9.73;;;5.47;;
32637;SDS011;19045;52.268;10.506;2023-04-01T22:49:15;10.30;;;5.50;;
32637;SDS011;19045;52.268;10.506;2023-04-01T22:51:47;7.30;;;5.10;;
32637;SDS011;19045;52.268;10.506;2023-04-01T22:54:21;8.45;;;5.05;;
32637;SDS011;19045;52.268;10.506;2023-04-01T22:56:52;11.05;;;6.57;;
32637;SDS011;19045;52.268;10.506;2023-04-01T22:59:22;10.38;;;6.30;;
32637;SDS011;19045;52.268;10.506;2023-04-01T23:01:55;12.55;;;5.82;;
32637;SDS011;19045;52.268;10.506;2023-04-01T23:06:57;10.82;;;5.40;;
32637;SDS011;19045;52.268;10.506;2023-04-01T23:09:28;16.03;;;6.23;;
32637;SDS011;19045;52.268;10.506;2023-04-01T23:11:57;11.98;;;6.00;;
32637;SDS011;19045;52.268;10.506;2023-04-01T23:14:34;12.45;;;5.97;;
32637;SDS011;19045;52.268;10.506;2023-04-01T23:17:12;13.98;;;6.55;;
32637;SDS011;19045;52.268;10.506;2023-04-01T23:19:47;13.82;;;6.07;;